createdAt,value
2023-05-05T00:02:10.029Z,20.00
2023-05-05T00:04:37.057Z,19.90
2023-05-05T00:07:04.078Z,19.80
2023-05-05T00:09:31.073Z,19.80
2023-05-05T00:11:58.145Z,19.60
2023-05-05T00:14:25.195Z,19.60
2023-05-05T00:16:52.461Z,19.50
2023-05-05T00:19:19.488Z,20.80
2023-05-05T00:21:46.480Z,19.30
2023-05-05T00:24:13.471Z,19.70
2023-05-05T00:26:40.587Z,19.20
2023-05-05T00:29:07.912Z,19.10
2023-05-05T00:31:35.095Z,19.10
2023-05-05T00:34:02.122Z,19.00
2023-05-05T00:36:29.070Z,18.90
2023-05-05T00:38:56.032Z,18.90
2023-05-05T00:41:23.066Z,18.90
2023-05-05T00:43:50.010Z,20.00
2023-05-05T00:46:26.830Z,18.80
2023-05-05T00:48:55.065Z,19.60
2023-05-05T00:51:22.876Z,18.80
2023-05-05T00:53:50.617Z,18.70
2023-05-05T00:56:21.977Z,18.70
2023-05-05T00:58:49.495Z,18.70
2023-05-05T01:01:17.957Z,18.60
2023-05-05T01:03:46.944Z,18.70
2023-05-05T01:06:38.802Z,18.60
2023-05-05T01:09:34.465Z,18.50
2023-05-05T01:13:17.469Z,18.50
2023-05-05T01:16:26.889Z,18.40
2023-05-05T01:19:26.598Z,18.30
2023-05-05T01:22:02.282Z,18.30
2023-05-05T01:25:21.368Z,18.20
2023-05-05T01:28:38.403Z,18.20
2023-05-05T01:31:35.154Z,18.20
2023-05-05T01:34:08.922Z,19.00
2023-05-05T01:36:47.521Z,18.10
2023-05-05T01:39:17.462Z,18.10
2023-05-05T01:41:50.959Z,19.50
2023-05-05T01:44:20.143Z,18.00
2023-05-05T01:46:50.456Z,18.00
2023-05-05T01:49:17.971Z,18.00
2023-05-05T01:51:48.956Z,17.90
2023-05-05T01:54:19.509Z,17.90
2023-05-05T01:56:49.214Z,17.80
2023-05-05T01:59:17.892Z,17.70
2023-05-05T02:01:47.624Z,17.60
2023-05-05T02:04:18.917Z,17.60
2023-05-05T02:06:51.612Z,17.40
2023-05-05T02:09:20.650Z,17.30
2023-05-05T02:11:48.476Z,17.20
2023-05-05T02:14:18.483Z,17.10
2023-05-05T02:16:47.100Z,17.00
2023-05-05T02:19:16.132Z,17.00
2023-05-05T02:21:43.261Z,16.80
2023-05-05T02:24:10.705Z,16.70
2023-05-05T02:26:45.983Z,18.10
2023-05-05T02:29:28.554Z,16.50
2023-05-05T02:32:05.568Z,16.40
2023-05-05T02:34:39.891Z,16.30
2023-05-05T02:37:20.311Z,15.30
2023-05-05T02:39:59.193Z,16.20
2023-05-05T02:42:36.520Z,16.00
2023-05-05T02:45:12.606Z,16.00
2023-05-05T02:47:42.965Z,15.80
2023-05-05T02:50:11.819Z,15.80
2023-05-05T02:52:48.671Z,15.70
2023-05-05T02:55:17.726Z,15.60
2023-05-05T02:58:05.285Z,17.80
2023-05-05T03:00:50.777Z,15.50
2023-05-05T03:03:44.424Z,15.50
2023-05-05T03:06:27.516Z,17.70
2023-05-05T03:09:13.212Z,18.00
2023-05-05T03:12:05.577Z,15.30
2023-05-05T03:14:46.228Z,15.30
2023-05-05T03:17:20.476Z,16.50
2023-05-05T03:19:49.364Z,16.00
2023-05-05T03:22:16.885Z,15.10
2023-05-05T03:24:55.809Z,14.50
2023-05-05T03:27:27.493Z,14.90
2023-05-05T03:29:58.069Z,14.80
2023-05-05T03:32:27.147Z,14.30
2023-05-05T03:34:55.639Z,14.70
2023-05-05T03:37:27.605Z,14.70
2023-05-05T03:39:54.792Z,14.60
2023-05-05T03:42:22.584Z,14.60
2023-05-05T03:44:53.387Z,14.50
2023-05-05T03:47:24.570Z,16.20
2023-05-05T03:49:52.535Z,14.40
2023-05-05T03:52:22.790Z,16.50
2023-05-05T03:54:50.035Z,13.50
2023-05-05T03:57:17.062Z,14.30
2023-05-05T03:59:44.330Z,16.40
2023-05-05T04:02:11.527Z,14.20
2023-05-05T04:04:38.645Z,14.20
2023-05-05T04:07:06.159Z,14.20
2023-05-05T04:09:33.632Z,14.30
2023-05-05T04:12:01.541Z,14.20
2023-05-05T04:14:30.115Z,14.10
2023-05-05T04:16:57.995Z,14.20
2023-05-05T04:19:25.031Z,14.10
2023-05-05T04:21:52.181Z,15.80
2023-05-05T04:24:24.917Z,14.10
2023-05-05T04:26:54.206Z,14.10
2023-05-05T04:29:21.904Z,14.00
2023-05-05T04:31:50.018Z,15.30
2023-05-05T04:34:17.239Z,14.10
2023-05-05T04:36:47.238Z,15.50
2023-05-05T04:39:14.500Z,14.10
2023-05-05T04:41:41.645Z,15.50
2023-05-05T04:44:09.922Z,14.10
2023-05-05T04:46:37.011Z,15.10
2023-05-05T04:49:05.785Z,14.20
2023-05-05T04:51:33.950Z,16.80
2023-05-05T04:54:04.364Z,14.60
2023-05-05T04:56:32.539Z,14.20
2023-05-05T04:58:59.657Z,14.20
2023-05-05T05:01:26.994Z,14.20
2023-05-05T05:03:54.234Z,15.70
2023-05-05T05:06:21.303Z,16.10
2023-05-05T05:08:48.444Z,14.30
2023-05-05T05:11:15.520Z,14.30
2023-05-05T05:13:42.975Z,16.30
2023-05-05T05:16:10.511Z,14.40
2023-05-05T05:18:37.692Z,14.40
2023-05-05T05:21:04.878Z,12.10
2023-05-05T05:23:32.000Z,14.50
2023-05-05T05:25:59.455Z,14.50
2023-05-05T05:28:26.903Z,14.50
2023-05-05T05:30:58.407Z,14.50
2023-05-05T05:33:25.927Z,14.50
2023-05-05T05:35:57.623Z,14.60
2023-05-05T05:38:25.960Z,14.50
2023-05-05T05:40:55.892Z,14.70
2023-05-05T05:43:24.339Z,14.70
2023-05-05T05:45:52.068Z,14.60
2023-05-05T05:48:21.449Z,16.40
2023-05-05T05:50:48.604Z,17.20
2023-05-05T05:53:15.651Z,14.40
2023-05-05T05:55:46.119Z,15.90
2023-05-05T05:58:14.517Z,15.30
2023-05-05T06:00:42.097Z,15.50
2023-05-05T06:03:10.850Z,15.60
2023-05-05T06:05:39.624Z,15.80
2023-05-05T06:08:07.047Z,16.00
2023-05-05T06:10:39.864Z,16.20
2023-05-05T06:13:11.375Z,16.40
2023-05-05T06:15:42.593Z,16.60
2023-05-05T06:18:12.045Z,16.80
2023-05-05T06:20:39.235Z,17.10
2023-05-05T06:23:06.930Z,17.20
2023-05-05T06:25:37.696Z,17.50
2023-05-05T06:28:05.796Z,17.70
2023-05-05T06:30:33.702Z,18.00
2023-05-05T06:33:00.847Z,18.10
2023-05-05T06:35:27.912Z,18.30
2023-05-05T06:37:54.970Z,18.50
2023-05-05T06:40:21.965Z,18.70
2023-05-05T06:42:48.952Z,18.90
2023-05-05T06:45:21.858Z,19.10
2023-05-05T06:47:49.351Z,19.30
2023-05-05T06:50:16.673Z,19.50
2023-05-05T06:52:45.277Z,19.70
2023-05-05T06:55:12.398Z,20.00
2023-05-05T06:57:39.514Z,19.90
2023-05-05T07:00:11.284Z,20.10
2023-05-05T07:02:38.958Z,20.40
2023-05-05T07:05:06.676Z,20.40
2023-05-05T07:07:33.881Z,20.50
2023-05-05T07:10:01.156Z,20.70
2023-05-05T07:12:33.721Z,20.80
2023-05-05T07:15:09.311Z,20.90
2023-05-05T07:17:42.861Z,22.10
2023-05-05T07:20:12.124Z,21.30
2023-05-05T07:22:39.457Z,21.50
2023-05-05T07:25:07.586Z,21.70
2023-05-05T07:27:39.183Z,21.90
2023-05-05T07:30:11.259Z,22.10
2023-05-05T07:32:40.623Z,22.30
2023-05-05T07:35:08.324Z,22.30
2023-05-05T07:37:35.752Z,22.10
2023-05-05T07:40:03.909Z,22.70
2023-05-05T07:42:31.173Z,22.50
2023-05-05T07:44:58.365Z,22.50
2023-05-05T07:47:25.566Z,22.60
2023-05-05T07:49:55.292Z,22.70
2023-05-05T07:52:33.205Z,23.40
2023-05-05T07:55:10.536Z,23.10
2023-05-05T07:57:40.378Z,24.40
2023-05-05T08:00:09.355Z,23.40
2023-05-05T08:02:41.371Z,23.60
2023-05-05T08:05:09.212Z,23.80
2023-05-05T08:07:40.914Z,23.90
2023-05-05T08:10:12.158Z,24.10
2023-05-05T08:12:40.178Z,24.20
2023-05-05T08:15:08.253Z,24.40
2023-05-05T08:17:52.095Z,24.60
2023-05-05T08:20:21.276Z,23.80
2023-05-05T08:22:50.366Z,25.10
2023-05-05T08:25:20.452Z,25.50
2023-05-05T08:27:47.479Z,25.80
2023-05-05T08:30:16.611Z,26.10
2023-05-05T08:32:45.676Z,26.50
2023-05-05T08:35:13.135Z,26.80
2023-05-05T08:37:40.489Z,27.10
2023-05-05T08:40:11.768Z,27.40
2023-05-05T08:42:39.596Z,27.50
2023-05-05T08:45:11.716Z,27.60
2023-05-05T08:47:39.696Z,27.80
2023-05-05T08:50:11.204Z,27.90
2023-05-05T08:52:45.353Z,28.00
2023-05-05T08:55:18.092Z,28.10
2023-05-05T08:57:52.473Z,28.20
2023-05-05T09:00:21.578Z,28.20
2023-05-05T09:02:49.793Z,28.20
2023-05-05T09:05:19.523Z,28.10
2023-05-05T09:07:47.308Z,28.10
2023-05-05T09:10:14.757Z,28.10
2023-05-05T09:12:42.496Z,28.10
2023-05-05T09:15:12.238Z,28.20
2023-05-05T09:17:40.678Z,28.30
2023-05-05T09:20:09.869Z,28.30
2023-05-05T09:22:45.530Z,28.40
2023-05-05T09:25:16.264Z,28.40
2023-05-05T09:27:47.048Z,28.30
2023-05-05T09:30:32.154Z,29.40
2023-05-05T09:33:00.561Z,28.10
2023-05-05T09:35:27.891Z,28.00
2023-05-05T09:37:55.449Z,27.80
2023-05-05T09:40:22.783Z,27.60
2023-05-05T09:43:02.868Z,27.50
2023-05-05T09:45:30.122Z,27.30
2023-05-05T09:48:00.362Z,27.20
2023-05-05T09:50:31.171Z,27.10
2023-05-05T09:53:02.221Z,27.70
2023-05-05T09:55:33.702Z,26.90
2023-05-05T09:58:23.595Z,26.70
2023-05-05T10:00:54.194Z,26.60
2023-05-05T10:03:21.899Z,26.50
2023-05-05T10:05:52.012Z,26.40
2023-05-05T10:08:23.025Z,26.20
2023-05-05T10:10:57.338Z,25.90
2023-05-05T10:13:25.356Z,25.70
2023-05-05T10:15:58.954Z,25.40
2023-05-05T10:18:28.474Z,25.20
2023-05-05T10:21:04.194Z,25.00
2023-05-05T10:23:54.337Z,24.90
2023-05-05T10:26:26.184Z,22.50
2023-05-05T10:29:04.077Z,25.40
2023-05-05T10:31:49.465Z,24.60
2023-05-05T10:34:42.335Z,24.50
2023-05-05T10:37:11.585Z,24.50
2023-05-05T10:39:39.527Z,24.40
2023-05-05T10:42:08.730Z,24.30
2023-05-05T10:44:39.123Z,24.30
2023-05-05T10:47:07.955Z,24.20
2023-05-05T10:49:56.372Z,24.00
2023-05-05T10:53:03.208Z,23.80
2023-05-05T10:56:04.717Z,24.80
2023-05-05T10:58:51.036Z,23.00
2023-05-05T11:01:34.136Z,22.50
2023-05-05T11:04:22.745Z,22.00
2023-05-05T11:07:09.822Z,21.50
2023-05-05T11:10:04.238Z,21.70
2023-05-05T11:12:45.899Z,20.80
2023-05-05T11:15:28.240Z,20.50
2023-05-05T11:18:07.515Z,20.30
2023-05-05T11:20:35.970Z,20.10
2023-05-05T11:23:03.232Z,19.90
2023-05-05T11:25:36.738Z,19.80
2023-05-05T11:28:11.123Z,19.60
2023-05-05T11:31:02.212Z,19.50
2023-05-05T11:33:38.205Z,19.50
2023-05-05T11:36:08.009Z,19.40
2023-05-05T11:39:20.098Z,19.30
2023-05-05T11:42:26.111Z,19.30
2023-05-05T11:44:55.587Z,19.30
2023-05-05T11:47:27.960Z,19.30
2023-05-05T11:49:57.660Z,19.40
2023-05-05T11:52:26.396Z,19.40
2023-05-05T11:54:54.029Z,19.50
2023-05-05T11:57:29.427Z,19.60
2023-05-05T12:00:04.350Z,19.50
2023-05-05T12:02:34.528Z,19.60
2023-05-05T12:05:03.699Z,19.60
2023-05-05T12:07:33.445Z,19.60
2023-05-05T12:10:01.172Z,19.50
2023-05-05T12:12:40.000Z,19.40
2023-05-05T12:15:10.995Z,19.30
2023-05-05T12:17:46.037Z,19.10
2023-05-05T12:20:13.768Z,18.90
2023-05-05T12:22:41.595Z,18.80
2023-05-05T12:25:09.682Z,18.60
2023-05-05T12:27:37.092Z,18.40
2023-05-05T12:30:17.498Z,18.30
2023-05-05T12:33:06.961Z,18.20
2023-05-05T12:35:34.846Z,19.60
2023-05-05T12:38:02.048Z,18.00
2023-05-05T12:40:52.943Z,17.90
2023-05-05T12:43:34.161Z,17.80
2023-05-05T12:46:06.501Z,17.70
2023-05-05T12:48:37.976Z,17.70
2023-05-05T12:51:23.154Z,17.80
2023-05-05T12:54:12.652Z,17.90
2023-05-05T12:56:45.703Z,18.00
2023-05-05T12:59:30.004Z,18.20
2023-05-05T13:02:02.635Z,18.30
2023-05-05T13:04:30.189Z,18.30
2023-05-05T13:07:18.058Z,18.50
2023-05-05T13:09:50.171Z,19.40
2023-05-05T13:12:21.761Z,18.50
2023-05-05T13:14:53.777Z,18.70
2023-05-05T13:17:20.903Z,18.70
2023-05-05T13:19:47.947Z,18.70
2023-05-05T13:22:17.789Z,18.90
2023-05-05T13:24:52.469Z,18.70
2023-05-05T13:27:20.810Z,18.70
2023-05-05T13:29:48.771Z,18.70
2023-05-05T13:32:17.035Z,18.50
2023-05-05T13:34:44.424Z,18.40
2023-05-05T13:37:11.490Z,18.40
2023-05-05T13:39:38.450Z,18.20
2023-05-05T13:42:05.479Z,18.10
2023-05-05T13:44:32.673Z,17.90
2023-05-05T13:46:59.684Z,17.80
2023-05-05T13:49:26.998Z,17.60
2023-05-05T13:51:55.248Z,17.40
2023-05-05T13:54:22.424Z,17.30
2023-05-05T13:56:49.441Z,17.30
2023-05-05T13:59:16.933Z,16.70
2023-05-05T14:01:45.257Z,17.40
2023-05-05T14:04:12.431Z,17.70
2023-05-05T14:06:39.786Z,17.70
2023-05-05T14:09:08.309Z,17.80
2023-05-05T14:11:36.130Z,18.10
2023-05-05T14:14:03.191Z,18.30
2023-05-05T14:16:30.261Z,18.50
2023-05-05T14:19:00.727Z,18.60
2023-05-05T14:21:27.797Z,18.70
2023-05-05T14:23:54.914Z,19.10
2023-05-05T14:26:25.939Z,18.70
2023-05-05T14:28:53.066Z,18.70
2023-05-05T14:31:20.203Z,18.40
2023-05-05T14:33:47.468Z,18.60
2023-05-05T14:36:18.175Z,18.40
2023-05-05T14:38:48.360Z,17.90
2023-05-05T14:41:16.123Z,17.70
2023-05-05T14:43:45.761Z,18.00
2023-05-05T14:46:12.873Z,20.70
2023-05-05T14:48:40.998Z,19.00
2023-05-05T14:51:11.428Z,17.80
2023-05-05T14:53:38.666Z,18.20
2023-05-05T14:56:08.140Z,17.80
2023-05-05T14:58:37.958Z,17.80
2023-05-05T15:01:05.806Z,17.70
2023-05-05T15:03:34.456Z,17.80
2023-05-05T15:06:01.882Z,17.90
2023-05-05T15:08:36.612Z,18.10
2023-05-05T15:11:07.694Z,18.50
2023-05-05T15:13:35.862Z,19.20
2023-05-05T15:16:03.095Z,19.50
2023-05-05T15:18:30.246Z,19.90
2023-05-05T15:20:58.583Z,20.30
2023-05-05T15:23:25.941Z,20.70
2023-05-05T15:25:53.523Z,20.80
2023-05-05T15:28:20.750Z,21.00
2023-05-05T15:30:47.978Z,21.10
2023-05-05T15:33:17.464Z,21.00
2023-05-05T15:35:48.126Z,21.10
2023-05-05T15:38:17.971Z,21.00
2023-05-05T15:40:59.966Z,21.50
2023-05-05T15:43:33.979Z,20.10
2023-05-05T15:46:01.175Z,20.70
2023-05-05T15:48:31.360Z,20.50
2023-05-05T15:50:58.504Z,20.40
2023-05-05T15:53:26.940Z,20.30
2023-05-05T15:55:54.332Z,20.20
2023-05-05T15:58:24.232Z,20.20
2023-05-05T16:00:51.704Z,18.70
2023-05-05T16:03:19.274Z,19.80
2023-05-05T16:05:47.264Z,19.80
2023-05-05T16:08:18.828Z,19.80
2023-05-05T16:10:49.933Z,19.60
2023-05-05T16:13:18.406Z,17.50
2023-05-05T16:15:47.292Z,17.90
2023-05-05T16:18:15.174Z,21.50
2023-05-05T16:20:46.036Z,20.00
2023-05-05T16:23:16.173Z,18.80
2023-05-05T16:25:45.931Z,19.20
2023-05-05T16:28:13.280Z,20.60
2023-05-05T16:30:42.817Z,20.80
2023-05-05T16:33:12.957Z,19.70
2023-05-05T16:35:40.117Z,21.30
2023-05-05T16:38:07.913Z,21.50
2023-05-05T16:40:37.717Z,21.70
2023-05-05T16:43:04.882Z,21.90
2023-05-05T16:45:32.256Z,22.20
2023-05-05T16:47:59.628Z,22.50
2023-05-05T16:50:26.892Z,22.60
2023-05-05T16:53:02.925Z,23.00
2023-05-05T16:55:30.383Z,23.10
2023-05-05T16:58:04.316Z,23.40
2023-05-05T17:00:31.790Z,23.60
2023-05-05T17:02:58.985Z,23.60
2023-05-05T17:05:27.123Z,23.70
2023-05-05T17:08:00.068Z,23.80
2023-05-05T17:10:27.489Z,23.90
2023-05-05T17:12:54.665Z,23.90
2023-05-05T17:15:22.619Z,24.70
2023-05-05T17:17:54.306Z,23.60
2023-05-05T17:20:21.730Z,23.50
2023-05-05T17:22:48.720Z,23.20
2023-05-05T17:25:16.899Z,23.00
2023-05-05T17:27:46.308Z,22.90
2023-05-05T17:30:19.391Z,23.30
2023-05-05T17:32:47.997Z,22.50
2023-05-05T17:35:17.145Z,22.30
2023-05-05T17:37:47.506Z,20.70
2023-05-05T17:40:17.152Z,21.90
2023-05-05T17:42:45.913Z,21.70
2023-05-05T17:45:16.084Z,21.50
2023-05-05T17:47:45.778Z,21.30
2023-05-05T17:50:12.949Z,21.10
2023-05-05T17:52:48.360Z,20.90
2023-05-05T17:55:15.583Z,22.50
2023-05-05T17:57:42.825Z,20.70
2023-05-05T18:00:12.567Z,20.50
2023-05-05T18:02:40.049Z,20.30
2023-05-05T18:05:08.432Z,20.20
2023-05-05T18:07:35.667Z,19.20
2023-05-05T18:10:02.923Z,20.00
2023-05-05T18:12:31.016Z,19.10
2023-05-05T18:14:58.714Z,19.80
2023-05-05T18:17:26.304Z,19.60
2023-05-05T18:19:53.645Z,19.60
2023-05-05T18:22:21.805Z,19.50
2023-05-05T18:24:49.073Z,19.60
2023-05-05T18:27:16.290Z,19.50
2023-05-05T18:29:50.807Z,19.70
2023-05-05T18:32:18.120Z,21.60
2023-05-05T18:34:51.543Z,19.70
2023-05-05T18:37:18.983Z,19.70
2023-05-05T18:39:49.905Z,19.90
2023-05-05T18:42:27.486Z,20.00
2023-05-05T18:44:54.887Z,19.20
2023-05-05T18:47:22.677Z,19.60
2023-05-05T18:49:51.828Z,18.00
2023-05-05T18:52:21.947Z,19.90
2023-05-05T18:54:49.321Z,19.80
2023-05-05T18:57:20.538Z,19.80
2023-05-05T18:59:47.731Z,19.60
2023-05-05T19:02:18.172Z,19.40
2023-05-05T19:04:46.803Z,19.10
2023-05-05T19:07:21.137Z,21.40
2023-05-05T19:09:59.177Z,18.70
2023-05-05T19:12:27.612Z,18.50
2023-05-05T19:14:57.587Z,18.20
2023-05-05T19:17:24.968Z,16.30
2023-05-05T19:19:52.157Z,17.10
2023-05-05T19:22:23.084Z,17.60
2023-05-05T19:24:50.265Z,17.40
2023-05-05T19:27:17.528Z,16.10
2023-05-05T19:29:49.594Z,18.10
2023-05-05T19:32:16.952Z,16.80
2023-05-05T19:34:46.106Z,16.70
2023-05-05T19:37:13.462Z,16.50
2023-05-05T19:39:45.954Z,16.00
2023-05-05T19:42:15.092Z,16.20
2023-05-05T19:44:44.386Z,16.00
2023-05-05T19:47:14.684Z,14.40
2023-05-05T19:49:50.658Z,13.40
2023-05-05T19:52:18.058Z,15.70
2023-05-05T19:54:46.958Z,13.70
2023-05-05T19:57:15.007Z,15.60
2023-05-05T19:59:50.135Z,15.40
2023-05-05T20:02:17.628Z,15.50
2023-05-05T20:04:48.172Z,15.20
2023-05-05T20:07:18.188Z,15.20
2023-05-05T20:09:52.739Z,17.20
2023-05-05T20:12:28.022Z,12.90
2023-05-05T20:15:02.197Z,15.00
2023-05-05T20:17:39.550Z,15.00
2023-05-05T20:20:10.479Z,14.80
2023-05-05T20:22:41.617Z,14.80
2023-05-05T20:25:19.230Z,14.70
2023-05-05T20:27:51.455Z,14.80
2023-05-05T20:30:21.388Z,14.80
2023-05-05T20:32:53.810Z,14.60
2023-05-05T20:35:26.716Z,14.50
2023-05-05T20:37:59.024Z,14.60
2023-05-05T20:40:33.826Z,14.60
2023-05-05T20:43:01.531Z,14.50
2023-05-05T20:45:32.107Z,14.30
2023-05-05T20:48:03.214Z,14.50
2023-05-05T20:50:33.518Z,15.80
2023-05-05T20:53:01.031Z,14.50
2023-05-05T20:55:30.098Z,14.30
2023-05-05T20:58:03.670Z,14.30
2023-05-05T21:00:49.571Z,14.30
2023-05-05T21:03:21.084Z,16.70
2023-05-05T21:05:50.087Z,14.40
2023-05-05T21:08:33.066Z,14.20
2023-05-05T21:11:01.857Z,14.20
2023-05-05T21:13:31.188Z,15.80
2023-05-05T21:16:02.233Z,13.60
2023-05-05T21:18:40.205Z,14.50
2023-05-05T21:21:41.003Z,14.30
2023-05-05T21:24:14.917Z,14.30
2023-05-05T21:26:48.321Z,12.80
2023-05-05T21:29:15.597Z,14.50
2023-05-05T21:31:45.999Z,14.50
2023-05-05T21:34:13.136Z,14.80
2023-05-05T21:36:40.465Z,14.30
2023-05-05T21:39:15.308Z,14.30
2023-05-05T21:41:50.465Z,14.40
2023-05-05T21:44:17.748Z,14.40
2023-05-05T21:46:47.750Z,15.00
2023-05-05T21:49:16.755Z,13.60
2023-05-05T21:51:47.531Z,14.40
2023-05-05T21:54:14.744Z,14.40
2023-05-05T21:56:41.829Z,14.50
2023-05-05T21:59:08.944Z,16.40
2023-05-05T22:01:39.121Z,12.60
2023-05-05T22:04:07.511Z,16.00
2023-05-05T22:06:34.931Z,13.30
2023-05-05T22:09:02.168Z,14.40
2023-05-05T22:11:29.404Z,14.80
2023-05-05T22:13:59.932Z,14.60
2023-05-05T22:16:27.372Z,15.90
2023-05-05T22:18:57.911Z,14.40
2023-05-05T22:21:27.620Z,14.40
2023-05-05T22:23:54.737Z,14.40
2023-05-05T22:26:21.748Z,14.40
2023-05-05T22:28:48.786Z,14.30
2023-05-05T22:31:23.220Z,14.30
2023-05-05T22:33:50.528Z,15.40
2023-05-05T22:36:17.619Z,14.20
2023-05-05T22:38:50.638Z,14.40
2023-05-05T22:41:21.339Z,14.30
2023-05-05T22:43:49.382Z,12.20
2023-05-05T22:46:17.200Z,15.70
2023-05-05T22:48:50.155Z,14.30
2023-05-05T22:51:20.449Z,14.40
2023-05-05T22:53:47.903Z,14.30
2023-05-05T22:56:15.155Z,13.40
2023-05-05T22:58:42.346Z,14.10
2023-05-05T23:01:09.958Z,14.20
2023-05-05T23:03:37.453Z,14.20
2023-05-05T23:06:04.687Z,16.50
2023-05-05T23:08:31.695Z,16.50
2023-05-05T23:10:58.889Z,14.10
2023-05-05T23:13:26.501Z,14.20
2023-05-05T23:15:53.767Z,14.10
2023-05-05T23:18:20.961Z,14.50
2023-05-05T23:20:48.111Z,14.10
2023-05-05T23:23:15.069Z,15.30
2023-05-05T23:25:42.227Z,14.00
2023-05-05T23:28:09.972Z,13.80
2023-05-05T23:30:37.127Z,14.10
2023-05-05T23:33:04.608Z,14.00
2023-05-05T23:35:34.982Z,14.00
2023-05-05T23:38:02.102Z,14.00
2023-05-05T23:40:31.432Z,13.90
2023-05-05T23:42:59.669Z,13.90
2023-05-05T23:45:26.760Z,14.00
2023-05-05T23:47:54.062Z,13.80
2023-05-05T23:50:21.355Z,13.90
2023-05-05T23:52:48.404Z,13.70
2023-05-05T23:55:15.356Z,13.80
2023-05-05T23:57:42.720Z,11.60
